sensor_id;sensor_type;location;lat;lon;timestamp;pressure;altitude;pressure_sealevel;temperature;humidity
86012;BME280;76591;42.170;27.850;2024-03-06T00:02:10;101140.16;;;7.53;76.92
86012;BME280;76591;42.170;27.850;2024-03-06T00:04:36;101139.31;;;7.53;77.13
86012;BME280;76591;42.170;27.850;2024-03-06T00:07:02;101134.94;;;7.52;76.46
86012;BME280;76591;42.170;27.850;2024-03-06T00:09:27;101138.50;;;7.52;76.44
86012;BME280;76591;42.170;27.850;2024-03-06T00:11:54;101136.19;;;7.49;76.66
86012;BME280;76591;42.170;27.850;2024-03-06T00:14:20;101145.72;;;7.45;76.78
86012;BME280;76591;42.170;27.850;2024-03-06T00:16:49;101136.59;;;7.46;76.49
86012;BME280;76591;42.170;27.850;2024-03-06T00:19:19;101147.81;;;7.50;76.83
86012;BME280;76591;42.170;27.850;2024-03-06T00:21:44;101146.16;;;7.49;76.18
86012;BME280;76591;42.170;27.850;2024-03-06T00:24:14;101149.47;;;7.44;76.35
86012;BME280;76591;42.170;27.850;2024-03-06T00:26:44;101140.94;;;7.47;76.67
86012;BME280;76591;42.170;27.850;2024-03-06T00:29:10;101144.09;;;7.51;75.88
86012;BME280;76591;42.170;27.850;2024-03-06T00:31:36;101139.06;;;7.48;76.24
86012;BME280;76591;42.170;27.850;2024-03-06T00:34:02;101145.13;;;7.50;76.33
86012;BME280;76591;42.170;27.850;2024-03-06T00:36:28;101149.69;;;7.49;75.95
86012;BME280;76591;42.170;27.850;2024-03-06T00:38:53;101153.03;;;7.51;75.95
86012;BME280;76591;42.170;27.850;2024-03-06T00:41:19;101164.66;;;7.52;75.69
86012;BME280;76591;42.170;27.850;2024-03-06T00:43:45;101154.94;;;7.57;76.23
86012;BME280;76591;42.170;27.850;2024-03-06T00:46:11;101157.22;;;7.60;75.56
86012;BME280;76591;42.170;27.850;2024-03-06T00:48:36;101161.63;;;7.61;75.69
86012;BME280;76591;42.170;27.850;2024-03-06T00:51:05;101165.09;;;7.55;75.41
86012;BME280;76591;42.170;27.850;2024-03-06T00:53:32;101151.16;;;7.52;75.50
86012;BME280;76591;42.170;27.850;2024-03-06T00:55:57;101160.94;;;7.53;75.81
86012;BME280;76591;42.170;27.850;2024-03-06T00:58:23;101164.91;;;7.57;75.62
86012;BME280;76591;42.170;27.850;2024-03-06T01:00:48;101171.16;;;7.57;75.42
86012;BME280;76591;42.170;27.850;2024-03-06T01:03:14;101166.97;;;7.55;75.16
86012;BME280;76591;42.170;27.850;2024-03-06T01:05:40;101173.63;;;7.52;75.17
86012;BME280;76591;42.170;27.850;2024-03-06T01:08:05;101167.78;;;7.49;75.53
86012;BME280;76591;42.170;27.850;2024-03-06T01:10:31;101164.63;;;7.45;75.73
86012;BME280;76591;42.170;27.850;2024-03-06T01:12:57;101170.25;;;7.43;75.97
86012;BME280;76591;42.170;27.850;2024-03-06T01:15:22;101171.50;;;7.48;75.52
86012;BME280;76591;42.170;27.850;2024-03-06T01:17:48;101173.59;;;7.46;75.21
86012;BME280;76591;42.170;27.850;2024-03-06T01:20:14;101175.66;;;7.43;75.49
86012;BME280;76591;42.170;27.850;2024-03-06T01:22:40;101174.38;;;7.39;75.14
86012;BME280;76591;42.170;27.850;2024-03-06T01:25:06;101177.06;;;7.39;75.66
86012;BME280;76591;42.170;27.850;2024-03-06T01:27:32;101180.59;;;7.40;75.68
86012;BME280;76591;42.170;27.850;2024-03-06T01:29:58;101183.47;;;7.38;75.13
86012;BME280;76591;42.170;27.850;2024-03-06T01:32:24;101178.91;;;7.39;75.27
86012;BME280;76591;42.170;27.850;2024-03-06T01:34:49;101189.72;;;7.39;75.48
86012;BME280;76591;42.170;27.850;2024-03-06T01:37:15;101191.00;;;7.43;75.34
86012;BME280;76591;42.170;27.850;2024-03-06T01:39:41;101191.63;;;7.45;74.79
86012;BME280;76591;42.170;27.850;2024-03-06T01:42:07;101200.59;;;7.46;74.65
86012;BME280;76591;42.170;27.850;2024-03-06T01:44:32;101194.56;;;7.43;74.34
86012;BME280;76591;42.170;27.850;2024-03-06T01:46:58;101203.47;;;7.44;74.54
86012;BME280;76591;42.170;27.850;2024-03-06T01:49:24;101205.78;;;7.47;74.46
86012;BME280;76591;42.170;27.850;2024-03-06T01:51:53;101210.81;;;7.50;74.47
86012;BME280;76591;42.170;27.850;2024-03-06T01:54:19;101213.09;;;7.53;74.61
86012;BME280;76591;42.170;27.850;2024-03-06T01:56:47;101218.50;;;7.53;74.20
86012;BME280;76591;42.170;27.850;2024-03-06T01:59:17;101211.19;;;7.47;73.63
86012;BME280;76591;42.170;27.850;2024-03-06T02:01:44;101217.41;;;7.48;73.92
86012;BME280;76591;42.170;27.850;2024-03-06T02:04:11;101214.28;;;7.44;73.83
86012;BME280;76591;42.170;27.850;2024-03-06T02:06:41;101205.56;;;7.42;73.77
86012;BME280;76591;42.170;27.850;2024-03-06T02:09:07;101210.94;;;7.42;74.13
86012;BME280;76591;42.170;27.850;2024-03-06T02:11:33;101209.06;;;7.42;73.77
86012;BME280;76591;42.170;27.850;2024-03-06T02:13:59;101206.56;;;7.41;73.55
86012;BME280;76591;42.170;27.850;2024-03-06T02:16:25;101214.28;;;7.44;73.95
86012;BME280;76591;42.170;27.850;2024-03-06T02:18:54;101211.41;;;7.46;73.97
86012;BME280;76591;42.170;27.850;2024-03-06T02:21:21;101210.53;;;7.45;74.01
86012;BME280;76591;42.170;27.850;2024-03-06T02:23:50;101225.47;;;7.41;73.71
86012;BME280;76591;42.170;27.850;2024-03-06T02:26:20;101216.53;;;7.40;73.70
86012;BME280;76591;42.170;27.850;2024-03-06T02:28:49;101224.22;;;7.37;73.36
86012;BME280;76591;42.170;27.850;2024-03-06T02:31:18;101228.53;;;7.31;73.58
86012;BME280;76591;42.170;27.850;2024-03-06T02:33:45;101224.84;;;7.39;73.40
86012;BME280;76591;42.170;27.850;2024-03-06T02:36:18;101229.22;;;7.40;73.74
86012;BME280;76591;42.170;27.850;2024-03-06T02:38:44;101224.47;;;7.42;73.89
86012;BME280;76591;42.170;27.850;2024-03-06T02:41:10;101229.22;;;7.40;73.67
86012;BME280;76591;42.170;27.850;2024-03-06T02:43:37;101229.53;;;7.30;73.78
86012;BME280;76591;42.170;27.850;2024-03-06T02:46:03;101240.75;;;7.27;73.95
86012;BME280;76591;42.170;27.850;2024-03-06T02:48:30;101231.16;;;7.25;73.70
86012;BME280;76591;42.170;27.850;2024-03-06T02:50:56;101244.03;;;7.22;73.84
86012;BME280;76591;42.170;27.850;2024-03-06T02:53:22;101246.28;;;7.19;73.61
86012;BME280;76591;42.170;27.850;2024-03-06T02:55:48;101245.38;;;7.12;73.88
86012;BME280;76591;42.170;27.850;2024-03-06T02:58:14;101252.72;;;7.18;73.55
86012;BME280;76591;42.170;27.850;2024-03-06T03:00:40;101251.69;;;7.19;73.43
86012;BME280;76591;42.170;27.850;2024-03-06T03:03:09;101250.25;;;7.23;73.65
86012;BME280;76591;42.170;27.850;2024-03-06T03:05:37;101252.91;;;7.16;73.25
86012;BME280;76591;42.170;27.850;2024-03-06T03:08:03;101261.41;;;7.13;73.58
86012;BME280;76591;42.170;27.850;2024-03-06T03:10:29;101255.53;;;7.10;73.25
86012;BME280;76591;42.170;27.850;2024-03-06T03:12:54;101266.16;;;7.11;73.32
86012;BME280;76591;42.170;27.850;2024-03-06T03:15:20;101259.66;;;7.06;73.18
86012;BME280;76591;42.170;27.850;2024-03-06T03:17:46;101268.09;;;6.96;73.49
86012;BME280;76591;42.170;27.850;2024-03-06T03:20:12;101271.22;;;6.99;73.72
86012;BME280;76591;42.170;27.850;2024-03-06T03:22:42;101271.03;;;7.01;73.13
86012;BME280;76591;42.170;27.850;2024-03-06T03:25:11;101271.63;;;6.96;73.79
86012;BME280;76591;42.170;27.850;2024-03-06T03:27:37;101269.09;;;6.95;73.35
86012;BME280;76591;42.170;27.850;2024-03-06T03:30:06;101270.50;;;6.91;73.63
86012;BME280;76591;42.170;27.850;2024-03-06T03:32:34;101275.72;;;6.92;73.40
86012;BME280;76591;42.170;27.850;2024-03-06T03:35:00;101270.78;;;6.96;73.37
86012;BME280;76591;42.170;27.850;2024-03-06T03:37:26;101271.81;;;6.95;73.52
86012;BME280;76591;42.170;27.850;2024-03-06T03:39:51;101267.63;;;6.92;73.33
86012;BME280;76591;42.170;27.850;2024-03-06T03:42:17;101274.25;;;6.90;73.37
86012;BME280;76591;42.170;27.850;2024-03-06T03:44:42;101277.47;;;6.78;73.16
86012;BME280;76591;42.170;27.850;2024-03-06T03:47:08;101273.47;;;6.74;73.67
86012;BME280;76591;42.170;27.850;2024-03-06T03:49:34;101281.66;;;6.66;73.90
86012;BME280;76591;42.170;27.850;2024-03-06T03:52:00;101279.78;;;6.67;74.00
86012;BME280;76591;42.170;27.850;2024-03-06T03:54:26;101282.06;;;6.63;74.12
86012;BME280;76591;42.170;27.850;2024-03-06T03:56:51;101287.25;;;6.65;73.75
86012;BME280;76591;42.170;27.850;2024-03-06T03:59:17;101287.06;;;6.66;73.78
86012;BME280;76591;42.170;27.850;2024-03-06T04:01:45;101284.53;;;6.65;73.95
86012;BME280;76591;42.170;27.850;2024-03-06T04:04:12;101283.53;;;6.66;74.26
86012;BME280;76591;42.170;27.850;2024-03-06T04:06:37;101287.44;;;6.63;74.01
86012;BME280;76591;42.170;27.850;2024-03-06T04:09:03;101296.94;;;6.59;73.90
86012;BME280;76591;42.170;27.850;2024-03-06T04:11:30;101289.44;;;6.54;73.82
86012;BME280;76591;42.170;27.850;2024-03-06T04:13:56;101288.38;;;6.55;74.25
86012;BME280;76591;42.170;27.850;2024-03-06T04:16:21;101297.97;;;6.58;74.15
86012;BME280;76591;42.170;27.850;2024-03-06T04:18:47;101305.69;;;6.61;74.09
86012;BME280;76591;42.170;27.850;2024-03-06T04:21:12;101309.03;;;6.63;73.82
86012;BME280;76591;42.170;27.850;2024-03-06T04:23:40;101310.91;;;6.63;73.69
86012;BME280;76591;42.170;27.850;2024-03-06T04:26:05;101307.16;;;6.64;73.90
86012;BME280;76591;42.170;27.850;2024-03-06T04:28:31;101306.13;;;6.65;73.59
86012;BME280;76591;42.170;27.850;2024-03-06T04:30:57;101310.25;;;6.60;73.75
86012;BME280;76591;42.170;27.850;2024-03-06T04:33:23;101309.59;;;6.58;73.70
86012;BME280;76591;42.170;27.850;2024-03-06T04:35:49;101312.94;;;6.60;73.39
86012;BME280;76591;42.170;27.850;2024-03-06T04:38:14;101317.50;;;6.60;73.47
86012;BME280;76591;42.170;27.850;2024-03-06T04:40:40;101315.66;;;6.60;74.12
86012;BME280;76591;42.170;27.850;2024-03-06T04:43:06;101313.97;;;6.59;73.57
86012;BME280;76591;42.170;27.850;2024-03-06T04:45:34;101321.03;;;6.60;73.88
86012;BME280;76591;42.170;27.850;2024-03-06T04:48:00;101325.41;;;6.62;73.34
86012;BME280;76591;42.170;27.850;2024-03-06T04:50:26;101320.19;;;6.60;73.51
86012;BME280;76591;42.170;27.850;2024-03-06T04:52:52;101322.53;;;6.63;73.42
86012;BME280;76591;42.170;27.850;2024-03-06T04:55:18;101316.31;;;6.63;73.67
86012;BME280;76591;42.170;27.850;2024-03-06T04:57:48;101322.22;;;6.58;73.77
86012;BME280;76591;42.170;27.850;2024-03-06T05:00:14;101324.56;;;6.61;73.13
86012;BME280;76591;42.170;27.850;2024-03-06T05:02:40;101322.69;;;6.62;73.48
86012;BME280;76591;42.170;27.850;2024-03-06T05:05:07;101323.53;;;6.62;73.17
86012;BME280;76591;42.170;27.850;2024-03-06T05:07:36;101324.56;;;6.61;73.53
86012;BME280;76591;42.170;27.850;2024-03-06T05:10:02;101329.41;;;6.66;72.99
86012;BME280;76591;42.170;27.850;2024-03-06T05:12:28;101332.75;;;6.68;73.32
86012;BME280;76591;42.170;27.850;2024-03-06T05:14:55;101333.22;;;6.71;73.13
86012;BME280;76591;42.170;27.850;2024-03-06T05:17:21;101338.22;;;6.74;73.10
86012;BME280;76591;42.170;27.850;2024-03-06T05:19:47;101340.28;;;6.72;73.34
86012;BME280;76591;42.170;27.850;2024-03-06T05:22:14;101343.22;;;6.77;73.02
86012;BME280;76591;42.170;27.850;2024-03-06T05:24:41;101350.41;;;6.85;72.90
86012;BME280;76591;42.170;27.850;2024-03-06T05:27:07;101345.25;;;6.90;72.85
86012;BME280;76591;42.170;27.850;2024-03-06T05:29:33;101347.31;;;6.88;72.83
86012;BME280;76591;42.170;27.850;2024-03-06T05:31:59;101357.09;;;6.89;72.44
86012;BME280;76591;42.170;27.850;2024-03-06T05:34:24;101350.66;;;6.90;72.63
86012;BME280;76591;42.170;27.850;2024-03-06T05:36:50;101357.34;;;6.94;72.38
86012;BME280;76591;42.170;27.850;2024-03-06T05:39:16;101364.88;;;6.99;72.41
86012;BME280;76591;42.170;27.850;2024-03-06T05:41:43;101366.16;;;7.03;72.55
86012;BME280;76591;42.170;27.850;2024-03-06T05:44:09;101364.78;;;7.07;71.96
86012;BME280;76591;42.170;27.850;2024-03-06T05:46:35;101369.41;;;7.13;72.27
86012;BME280;76591;42.170;27.850;2024-03-06T05:49:01;101372.13;;;7.13;71.83
86012;BME280;76591;42.170;27.850;2024-03-06T05:51:27;101374.81;;;7.13;72.34
86012;BME280;76591;42.170;27.850;2024-03-06T05:53:53;101375.91;;;7.19;71.66
86012;BME280;76591;42.170;27.850;2024-03-06T05:56:19;101374.94;;;7.27;71.91
86012;BME280;76591;42.170;27.850;2024-03-06T05:58:44;101381.91;;;7.36;71.66
86012;BME280;76591;42.170;27.850;2024-03-06T06:01:17;101384.09;;;7.47;71.41
86012;BME280;76591;42.170;27.850;2024-03-06T06:03:47;101387.91;;;7.53;71.41
86012;BME280;76591;42.170;27.850;2024-03-06T06:06:17;101389.84;;;7.59;71.07
86012;BME280;76591;42.170;27.850;2024-03-06T06:08:45;101392.78;;;7.64;71.08
86012;BME280;76591;42.170;27.850;2024-03-06T06:11:11;101389.94;;;7.72;71.32
86012;BME280;76591;42.170;27.850;2024-03-06T06:13:37;101389.38;;;7.77;71.19
86012;BME280;76591;42.170;27.850;2024-03-06T06:16:05;101394.00;;;7.83;70.78
86012;BME280;76591;42.170;27.850;2024-03-06T06:18:31;101388.66;;;7.90;70.53
86012;BME280;76591;42.170;27.850;2024-03-06T06:20:58;101389.97;;;8.00;70.54
86012;BME280;76591;42.170;27.850;2024-03-06T06:23:24;101384.63;;;8.07;70.19
86012;BME280;76591;42.170;27.850;2024-03-06T06:25:50;101382.34;;;8.11;70.14
86012;BME280;76591;42.170;27.850;2024-03-06T06:28:15;101380.13;;;8.21;70.03
86012;BME280;76591;42.170;27.850;2024-03-06T06:30:41;101389.38;;;8.33;69.98
86012;BME280;76591;42.170;27.850;2024-03-06T06:33:07;101391.69;;;8.36;69.65
86012;BME280;76591;42.170;27.850;2024-03-06T06:35:33;101393.69;;;8.28;69.69
86012;BME280;76591;42.170;27.850;2024-03-06T06:38:00;101388.09;;;8.29;69.24
86012;BME280;76591;42.170;27.850;2024-03-06T06:40:26;101395.16;;;8.30;68.78
86012;BME280;76591;42.170;27.850;2024-03-06T06:42:53;101400.94;;;8.20;68.92
86012;BME280;76591;42.170;27.850;2024-03-06T06:45:20;101401.22;;;8.32;68.74
86012;BME280;76591;42.170;27.850;2024-03-06T06:47:49;101398.56;;;8.39;68.75
86012;BME280;76591;42.170;27.850;2024-03-06T06:50:16;101400.06;;;8.41;68.42
86012;BME280;76591;42.170;27.850;2024-03-06T06:52:42;101400.91;;;8.42;68.60
86012;BME280;76591;42.170;27.850;2024-03-06T06:55:08;101410.06;;;8.41;68.81
86012;BME280;76591;42.170;27.850;2024-03-06T06:57:37;101409.06;;;8.49;69.08
86012;BME280;76591;42.170;27.850;2024-03-06T07:00:04;101405.13;;;8.51;68.64
86012;BME280;76591;42.170;27.850;2024-03-06T07:02:40;101414.22;;;8.43;68.85
86012;BME280;76591;42.170;27.850;2024-03-06T07:05:09;101420.34;;;8.31;69.10
86012;BME280;76591;42.170;27.850;2024-03-06T07:07:36;101429.28;;;8.24;68.88
86012;BME280;76591;42.170;27.850;2024-03-06T07:10:02;101429.41;;;8.16;68.90
86012;BME280;76591;42.170;27.850;2024-03-06T07:12:28;101428.72;;;8.08;69.31
86012;BME280;76591;42.170;27.850;2024-03-06T07:14:54;101434.72;;;8.03;69.10
86012;BME280;76591;42.170;27.850;2024-03-06T07:17:20;101432.13;;;8.16;69.38
86012;BME280;76591;42.170;27.850;2024-03-06T07:19:45;101436.72;;;8.44;69.03
86012;BME280;76591;42.170;27.850;2024-03-06T07:22:11;101446.56;;;8.52;68.27
86012;BME280;76591;42.170;27.850;2024-03-06T07:24:36;101440.13;;;8.53;67.65
86012;BME280;76591;42.170;27.850;2024-03-06T07:27:03;101448.28;;;8.59;67.88
86012;BME280;76591;42.170;27.850;2024-03-06T07:29:28;101453.00;;;8.51;67.55
86012;BME280;76591;42.170;27.850;2024-03-06T07:31:54;101449.91;;;8.32;67.57
86012;BME280;76591;42.170;27.850;2024-03-06T07:34:20;101457.03;;;8.33;67.71
86012;BME280;76591;42.170;27.850;2024-03-06T07:36:49;101455.03;;;8.20;68.21
86012;BME280;76591;42.170;27.850;2024-03-06T07:39:19;101465.75;;;8.07;68.50
86012;BME280;76591;42.170;27.850;2024-03-06T07:41:45;101469.59;;;7.98;68.38
86012;BME280;76591;42.170;27.850;2024-03-06T07:44:10;101474.94;;;7.91;69.10
86012;BME280;76591;42.170;27.850;2024-03-06T07:46:36;101483.38;;;7.81;69.17
86012;BME280;76591;42.170;27.850;2024-03-06T07:49:02;101473.91;;;7.71;69.10
86012;BME280;76591;42.170;27.850;2024-03-06T07:51:29;101477.72;;;7.55;69.25
86012;BME280;76591;42.170;27.850;2024-03-06T07:53:57;101480.66;;;7.60;69.17
86012;BME280;76591;42.170;27.850;2024-03-06T07:56:27;101479.44;;;7.62;68.27
86012;BME280;76591;42.170;27.850;2024-03-06T07:58:53;101482.06;;;7.56;68.15
86012;BME280;76591;42.170;27.850;2024-03-06T08:01:20;101490.56;;;7.53;68.08
86012;BME280;76591;42.170;27.850;2024-03-06T08:03:46;101491.22;;;7.55;67.81
86012;BME280;76591;42.170;27.850;2024-03-06T08:06:12;101484.06;;;7.47;67.90
86012;BME280;76591;42.170;27.850;2024-03-06T08:08:44;101495.16;;;7.52;68.14
86012;BME280;76591;42.170;27.850;2024-03-06T08:11:11;101501.44;;;7.59;67.66
86012;BME280;76591;42.170;27.850;2024-03-06T08:13:37;101504.25;;;7.51;67.93
86012;BME280;76591;42.170;27.850;2024-03-06T08:16:04;101510.72;;;7.50;68.61
86012;BME280;76591;42.170;27.850;2024-03-06T08:18:30;101509.13;;;7.41;69.00
86012;BME280;76591;42.170;27.850;2024-03-06T08:20:56;101512.63;;;7.20;69.25
86012;BME280;76591;42.170;27.850;2024-03-06T08:23:22;101513.84;;;7.17;69.62
86012;BME280;76591;42.170;27.850;2024-03-06T08:25:49;101521.94;;;7.17;69.85
86012;BME280;76591;42.170;27.850;2024-03-06T08:28:14;101512.31;;;7.15;69.71
86012;BME280;76591;42.170;27.850;2024-03-06T08:30:41;101519.22;;;7.03;70.14
86012;BME280;76591;42.170;27.850;2024-03-06T08:33:06;101522.38;;;7.06;69.90
86012;BME280;76591;42.170;27.850;2024-03-06T08:35:32;101526.69;;;7.00;70.03
86012;BME280;76591;42.170;27.850;2024-03-06T08:37:58;101520.63;;;6.98;70.07
86012;BME280;76591;42.170;27.850;2024-03-06T08:40:23;101527.97;;;7.05;69.65
86012;BME280;76591;42.170;27.850;2024-03-06T08:42:51;101531.78;;;7.10;69.64
86012;BME280;76591;42.170;27.850;2024-03-06T08:45:17;101527.03;;;7.12;70.16
86012;BME280;76591;42.170;27.850;2024-03-06T08:47:44;101529.66;;;7.20;69.81
86012;BME280;76591;42.170;27.850;2024-03-06T08:50:10;101525.81;;;7.15;69.36
86012;BME280;76591;42.170;27.850;2024-03-06T08:52:37;101528.34;;;7.16;69.29
86012;BME280;76591;42.170;27.850;2024-03-06T08:55:03;101533.09;;;7.14;69.60
86012;BME280;76591;42.170;27.850;2024-03-06T08:57:32;101532.34;;;7.06;69.12
86012;BME280;76591;42.170;27.850;2024-03-06T08:59:59;101535.53;;;7.09;69.03
86012;BME280;76591;42.170;27.850;2024-03-06T09:02:24;101538.88;;;7.26;68.45
86012;BME280;76591;42.170;27.850;2024-03-06T09:04:51;101535.88;;;7.36;67.53
86012;BME280;76591;42.170;27.850;2024-03-06T09:07:18;101545.53;;;7.45;67.16
86012;BME280;76591;42.170;27.850;2024-03-06T09:09:43;101543.72;;;7.67;67.57
86012;BME280;76591;42.170;27.850;2024-03-06T09:12:10;101545.16;;;7.84;66.98
86012;BME280;76591;42.170;27.850;2024-03-06T09:14:39;101550.97;;;7.81;66.42
86012;BME280;76591;42.170;27.850;2024-03-06T09:17:05;101551.88;;;7.89;65.78
86012;BME280;76591;42.170;27.850;2024-03-06T09:19:32;101548.22;;;7.96;66.16
86012;BME280;76591;42.170;27.850;2024-03-06T09:21:58;101558.53;;;8.29;65.01
86012;BME280;76591;42.170;27.850;2024-03-06T09:24:25;101560.47;;;8.35;64.37
86012;BME280;76591;42.170;27.850;2024-03-06T09:26:51;101547.25;;;8.69;64.11
86012;BME280;76591;42.170;27.850;2024-03-06T09:29:17;101553.13;;;8.51;63.62
86012;BME280;76591;42.170;27.850;2024-03-06T09:31:44;101549.34;;;8.73;63.51
86012;BME280;76591;42.170;27.850;2024-03-06T09:34:11;101554.38;;;9.11;62.57
86012;BME280;76591;42.170;27.850;2024-03-06T09:36:40;101556.56;;;9.29;62.18
86012;BME280;76591;42.170;27.850;2024-03-06T09:39:11;101553.06;;;9.35;61.66
86012;BME280;76591;42.170;27.850;2024-03-06T09:41:37;101545.56;;;9.37;61.05
86012;BME280;76591;42.170;27.850;2024-03-06T09:44:06;101559.81;;;9.53;60.24
86012;BME280;76591;42.170;27.850;2024-03-06T09:46:33;101552.16;;;9.69;60.05
86012;BME280;76591;42.170;27.850;2024-03-06T09:49:00;101550.09;;;9.78;59.57
86012;BME280;76591;42.170;27.850;2024-03-06T09:51:26;101556.81;;;9.89;59.49
86012;BME280;76591;42.170;27.850;2024-03-06T09:53:53;101550.09;;;9.78;58.87
86012;BME280;76591;42.170;27.850;2024-03-06T09:56:19;101549.66;;;9.75;58.67
86012;BME280;76591;42.170;27.850;2024-03-06T09:58:46;101550.91;;;9.72;58.40
86012;BME280;76591;42.170;27.850;2024-03-06T10:01:16;101552.13;;;9.56;58.28
86012;BME280;76591;42.170;27.850;2024-03-06T10:03:42;101563.31;;;9.46;58.18
86012;BME280;76591;42.170;27.850;2024-03-06T10:06:09;101561.09;;;9.63;58.15
86012;BME280;76591;42.170;27.850;2024-03-06T10:08:35;101554.09;;;9.82;57.29
86012;BME280;76591;42.170;27.850;2024-03-06T10:11:03;101557.44;;;9.91;56.93
86012;BME280;76591;42.170;27.850;2024-03-06T10:13:29;101557.66;;;9.96;56.04
86012;BME280;76591;42.170;27.850;2024-03-06T10:15:59;101560.69;;;10.55;54.72
86012;BME280;76591;42.170;27.850;2024-03-06T10:18:29;101553.69;;;11.25;53.18
86012;BME280;76591;42.170;27.850;2024-03-06T10:20:56;101555.59;;;11.25;52.33
86012;BME280;76591;42.170;27.850;2024-03-06T10:23:22;101561.06;;;11.70;51.69
86012;BME280;76591;42.170;27.850;2024-03-06T10:25:48;101562.47;;;11.27;52.68
86012;BME280;76591;42.170;27.850;2024-03-06T10:28:21;101559.00;;;10.60;53.13
86012;BME280;76591;42.170;27.850;2024-03-06T10:30:51;101553.38;;;10.48;53.53
86012;BME280;76591;42.170;27.850;2024-03-06T10:33:18;101556.72;;;10.64;53.83
86012;BME280;76591;42.170;27.850;2024-03-06T10:35:46;101554.63;;;10.66;53.42
86012;BME280;76591;42.170;27.850;2024-03-06T10:38:13;101558.19;;;10.73;53.52
86012;BME280;76591;42.170;27.850;2024-03-06T10:40:41;101559.88;;;10.67;53.75
86012;BME280;76591;42.170;27.850;2024-03-06T10:43:08;101549.97;;;11.20;53.18
86012;BME280;76591;42.170;27.850;2024-03-06T10:45:49;101550.09;;;11.38;52.12
86012;BME280;76591;42.170;27.850;2024-03-06T10:48:17;101550.84;;;11.00;52.34
86012;BME280;76591;42.170;27.850;2024-03-06T10:50:45;101548.16;;;10.93;53.48
86012;BME280;76591;42.170;27.850;2024-03-06T10:53:15;101547.81;;;11.35;53.05
86012;BME280;76591;42.170;27.850;2024-03-06T10:55:43;101551.13;;;11.95;51.61
86012;BME280;76591;42.170;27.850;2024-03-06T10:58:12;101551.53;;;12.56;50.88
86012;BME280;76591;42.170;27.850;2024-03-06T11:00:45;101548.63;;;13.01;48.89
86012;BME280;76591;42.170;27.850;2024-03-06T11:03:15;101549.66;;;13.00;48.63
86012;BME280;76591;42.170;27.850;2024-03-06T11:05:45;101549.25;;;12.96;48.87
86012;BME280;76591;42.170;27.850;2024-03-06T11:08:14;101536.06;;;13.18;47.77
86012;BME280;76591;42.170;27.850;2024-03-06T11:10:42;101525.03;;;13.32;47.88
86012;BME280;76591;42.170;27.850;2024-03-06T11:15:46;101527.19;;;13.60;45.90
86012;BME280;76591;42.170;27.850;2024-03-06T11:23:27;101515.47;;;14.55;43.55
86012;BME280;76591;42.170;27.850;2024-03-06T11:31:04;101513.56;;;13.42;44.27
86012;BME280;76591;42.170;27.850;2024-03-06T11:33:42;101513.69;;;13.47;43.61
86012;BME280;76591;42.170;27.850;2024-03-06T11:36:14;101517.25;;;12.92;44.35
86012;BME280;76591;42.170;27.850;2024-03-06T11:41:31;101523.69;;;13.16;44.38
86012;BME280;76591;42.170;27.850;2024-03-06T11:44:00;101524.75;;;13.15;44.13
86012;BME280;76591;42.170;27.850;2024-03-06T11:47:05;101517.50;;;13.27;44.23
86012;BME280;76591;42.170;27.850;2024-03-06T11:49:33;101525.81;;;13.51;43.67
86012;BME280;76591;42.170;27.850;2024-03-06T11:52:04;101520.19;;;13.64;43.16
86012;BME280;76591;42.170;27.850;2024-03-06T11:54:31;101519.50;;;13.99;42.64
86012;BME280;76591;42.170;27.850;2024-03-06T11:56:59;101525.22;;;13.97;42.58
86012;BME280;76591;42.170;27.850;2024-03-06T11:59:28;101516.50;;;13.89;42.84
86012;BME280;76591;42.170;27.850;2024-03-06T12:02:01;101516.13;;;13.85;42.57
86012;BME280;76591;42.170;27.850;2024-03-06T12:04:27;101509.25;;;13.83;42.56
86012;BME280;76591;42.170;27.850;2024-03-06T12:06:57;101511.31;;;13.99;41.96
86012;BME280;76591;42.170;27.850;2024-03-06T12:09:25;101507.44;;;14.07;42.72
86012;BME280;76591;42.170;27.850;2024-03-06T12:11:51;101511.50;;;14.28;41.82
86012;BME280;76591;42.170;27.850;2024-03-06T12:14:18;101519.69;;;14.28;42.00
86012;BME280;76591;42.170;27.850;2024-03-06T12:16:54;101508.22;;;13.95;42.31
86012;BME280;76591;42.170;27.850;2024-03-06T12:19:21;101507.81;;;14.10;42.63
86012;BME280;76591;42.170;27.850;2024-03-06T12:21:47;101511.91;;;14.01;42.78
86012;BME280;76591;42.170;27.850;2024-03-06T12:24:16;101502.03;;;13.58;43.46
86012;BME280;76591;42.170;27.850;2024-03-06T12:26:43;101497.50;;;13.52;43.16
86012;BME280;76591;42.170;27.850;2024-03-06T12:29:11;101507.28;;;13.41;43.82
86012;BME280;76591;42.170;27.850;2024-03-06T12:31:41;101505.28;;;13.67;43.06
86012;BME280;76591;42.170;27.850;2024-03-06T12:34:07;101505.44;;;13.53;43.89
86012;BME280;76591;42.170;27.850;2024-03-06T12:36:34;101504.09;;;13.74;43.39
86012;BME280;76591;42.170;27.850;2024-03-06T12:39:00;101513.00;;;13.70;43.55
86012;BME280;76591;42.170;27.850;2024-03-06T12:41:27;101506.31;;;13.84;43.21
86012;BME280;76591;42.170;27.850;2024-03-06T12:43:54;101514.84;;;13.88;42.75
86012;BME280;76591;42.170;27.850;2024-03-06T12:46:21;101508.56;;;13.99;42.99
86012;BME280;76591;42.170;27.850;2024-03-06T12:48:47;101506.56;;;13.94;42.81
86012;BME280;76591;42.170;27.850;2024-03-06T12:51:13;101512.75;;;13.41;43.45
86012;BME280;76591;42.170;27.850;2024-03-06T12:53:38;101519.63;;;13.25;43.91
86012;BME280;76591;42.170;27.850;2024-03-06T12:56:05;101519.78;;;13.12;44.02
86012;BME280;76591;42.170;27.850;2024-03-06T12:58:31;101521.78;;;12.98;44.63
86012;BME280;76591;42.170;27.850;2024-03-06T13:00:57;101523.06;;;12.77;45.25
86012;BME280;76591;42.170;27.850;2024-03-06T13:03:24;101524.72;;;12.78;45.46